sensor_id;sensor_type;location;lat;lon;timestamp;P1;durP1;ratioP1;P2;durP2;ratioP2
21761;SDS011;11203;50.870;20.682;2022-08-19T00:01:39;19.33;;;17.40;;
21761;SDS011;11203;50.870;20.682;2022-08-19T00:04:09;19.55;;;17.27;;
21761;SDS011;11203;50.870;20.682;2022-08-19T00:06:38;19.65;;;17.17;;
21761;SDS011;11203;50.870;20.682;2022-08-19T00:09:07;18.35;;;16.48;;
21761;SDS011;11203;50.870;20.682;2022-08-19T00:11:37;19.85;;;17.88;;
21761;SDS011;11203;50.870;20.682;2022-08-19T00:14:05;18.88;;;16.88;;
21761;SDS011;11203;50.870;20.682;2022-08-19T00:16:35;20.08;;;17.60;;
21761;SDS011;11203;50.870;20.682;2022-08-19T00:19:04;21.42;;;17.58;;
21761;SDS011;11203;50.870;20.682;2022-08-19T00:21:30;20.25;;;17.15;;
21761;SDS011;11203;50.870;20.682;2022-08-19T00:23:56;20.73;;;17.58;;
21761;SDS011;11203;50.870;20.682;2022-08-19T00:26:27;20.13;;;18.02;;
21761;SDS011;11203;50.870;20.682;2022-08-19T00:28:54;24.55;;;18.67;;
21761;SDS011;11203;50.870;20.682;2022-08-19T00:31:20;21.48;;;17.55;;
21761;SDS011;11203;50.870;20.682;2022-08-19T00:33:47;20.75;;;16.85;;
21761;SDS011;11203;50.870;20.682;2022-08-19T00:36:15;19.60;;;17.50;;
21761;SDS011;11203;50.870;20.682;2022-08-19T00:38:42;19.27;;;17.27;;
21761;SDS011;11203;50.870;20.682;2022-08-19T00:41:11;25.63;;;17.38;;
21761;SDS011;11203;50.870;20.682;2022-08-19T00:43:41;19.65;;;17.65;;
21761;SDS011;11203;50.870;20.682;2022-08-19T00:46:07;19.23;;;17.33;;
21761;SDS011;11203;50.870;20.682;2022-08-19T00:48:34;23.15;;;17.33;;
21761;SDS011;11203;50.870;20.682;2022-08-19T00:51:01;19.73;;;17.30;;
21761;SDS011;11203;50.870;20.682;2022-08-19T00:53:27;19.30;;;17.08;;
21761;SDS011;11203;50.870;20.682;2022-08-19T00:55:56;23.52;;;18.20;;
21761;SDS011;11203;50.870;20.682;2022-08-19T00:58:26;19.25;;;17.30;;
21761;SDS011;11203;50.870;20.682;2022-08-19T01:00:55;23.85;;;18.98;;
21761;SDS011;11203;50.870;20.682;2022-08-19T01:03:22;23.50;;;17.65;;
21761;SDS011;11203;50.870;20.682;2022-08-19T01:05:49;22.10;;;17.88;;
21761;SDS011;11203;50.870;20.682;2022-08-19T01:08:17;19.02;;;16.88;;
21761;SDS011;11203;50.870;20.682;2022-08-19T01:10:47;19.75;;;17.77;;
21761;SDS011;11203;50.870;20.682;2022-08-19T01:13:19;21.08;;;18.73;;
21761;SDS011;11203;50.870;20.682;2022-08-19T01:15:53;20.80;;;18.38;;
21761;SDS011;11203;50.870;20.682;2022-08-19T01:18:24;21.05;;;18.83;;
21761;SDS011;11203;50.870;20.682;2022-08-19T01:20:54;23.67;;;17.70;;
21761;SDS011;11203;50.870;20.682;2022-08-19T01:23:25;21.77;;;18.58;;
21761;SDS011;11203;50.870;20.682;2022-08-19T01:26:20;27.60;;;19.20;;
21761;SDS011;11203;50.870;20.682;2022-08-19T01:28:49;23.42;;;18.60;;
21761;SDS011;11203;50.870;20.682;2022-08-19T01:31:19;21.25;;;18.45;;
21761;SDS011;11203;50.870;20.682;2022-08-19T01:33:51;20.42;;;18.33;;
21761;SDS011;11203;50.870;20.682;2022-08-19T01:36:33;21.30;;;19.05;;
21761;SDS011;11203;50.870;20.682;2022-08-19T01:39:08;20.98;;;18.77;;
21761;SDS011;11203;50.870;20.682;2022-08-19T01:41:37;23.40;;;18.70;;
21761;SDS011;11203;50.870;20.682;2022-08-19T01:44:04;20.58;;;18.48;;
21761;SDS011;11203;50.870;20.682;2022-08-19T01:46:32;23.02;;;18.42;;
21761;SDS011;11203;50.870;20.682;2022-08-19T01:48:58;21.80;;;18.85;;
21761;SDS011;11203;50.870;20.682;2022-08-19T01:51:25;22.17;;;19.52;;
21761;SDS011;11203;50.870;20.682;2022-08-19T01:53:53;22.92;;;18.00;;
21761;SDS011;11203;50.870;20.682;2022-08-19T01:56:19;21.08;;;18.80;;
21761;SDS011;11203;50.870;20.682;2022-08-19T01:58:49;20.92;;;18.88;;
21761;SDS011;11203;50.870;20.682;2022-08-19T02:01:21;24.77;;;18.23;;
21761;SDS011;11203;50.870;20.682;2022-08-19T02:03:47;20.70;;;18.40;;
21761;SDS011;11203;50.870;20.682;2022-08-19T02:06:13;20.10;;;18.10;;
21761;SDS011;11203;50.870;20.682;2022-08-19T02:08:40;20.50;;;18.30;;
21761;SDS011;11203;50.870;20.682;2022-08-19T02:11:06;21.45;;;19.13;;
21761;SDS011;11203;50.870;20.682;2022-08-19T02:13:33;22.33;;;18.42;;
21761;SDS011;11203;50.870;20.682;2022-08-19T02:15:59;22.10;;;19.80;;
21761;SDS011;11203;50.870;20.682;2022-08-19T02:18:25;21.02;;;18.75;;
21761;SDS011;11203;50.870;20.682;2022-08-19T02:20:52;21.88;;;19.70;;
21761;SDS011;11203;50.870;20.682;2022-08-19T02:23:18;21.02;;;18.83;;
21761;SDS011;11203;50.870;20.682;2022-08-19T02:25:45;22.83;;;19.10;;
21761;SDS011;11203;50.870;20.682;2022-08-19T02:28:13;22.13;;;19.83;;
21761;SDS011;11203;50.870;20.682;2022-08-19T02:30:40;22.23;;;19.88;;
21761;SDS011;11203;50.870;20.682;2022-08-19T02:33:07;21.40;;;19.25;;
21761;SDS011;11203;50.870;20.682;2022-08-19T02:35:33;22.67;;;19.00;;
21761;SDS011;11203;50.870;20.682;2022-08-19T02:37:59;21.15;;;18.75;;
21761;SDS011;11203;50.870;20.682;2022-08-19T02:40:48;24.23;;;19.45;;
21761;SDS011;11203;50.870;20.682;2022-08-19T02:43:17;22.70;;;19.77;;
21761;SDS011;11203;50.870;20.682;2022-08-19T02:45:43;21.60;;;19.50;;
21761;SDS011;11203;50.870;20.682;2022-08-19T02:48:09;22.45;;;20.25;;
21761;SDS011;11203;50.870;20.682;2022-08-19T02:50:38;21.88;;;19.63;;
21761;SDS011;11203;50.870;20.682;2022-08-19T02:53:05;27.88;;;19.33;;
21761;SDS011;11203;50.870;20.682;2022-08-19T02:55:33;22.02;;;19.30;;
21761;SDS011;11203;50.870;20.682;2022-08-19T02:57:59;21.67;;;18.52;;
21761;SDS011;11203;50.870;20.682;2022-08-19T03:00:26;20.33;;;18.38;;
21761;SDS011;11203;50.870;20.682;2022-08-19T03:02:53;24.77;;;19.05;;
21761;SDS011;11203;50.870;20.682;2022-08-19T03:05:19;21.27;;;18.75;;
21761;SDS011;11203;50.870;20.682;2022-08-19T03:07:45;25.77;;;18.77;;
21761;SDS011;11203;50.870;20.682;2022-08-19T03:10:11;20.83;;;18.60;;
21761;SDS011;11203;50.870;20.682;2022-08-19T03:12:38;26.50;;;18.90;;
21761;SDS011;11203;50.870;20.682;2022-08-19T03:15:05;21.40;;;19.10;;
21761;SDS011;11203;50.870;20.682;2022-08-19T03:17:33;23.48;;;19.38;;
21761;SDS011;11203;50.870;20.682;2022-08-19T03:20:00;22.17;;;19.35;;
21761;SDS011;11203;50.870;20.682;2022-08-19T03:22:26;27.17;;;19.92;;
21761;SDS011;11203;50.870;20.682;2022-08-19T03:24:52;21.67;;;19.08;;
21761;SDS011;11203;50.870;20.682;2022-08-19T03:27:18;21.13;;;18.92;;
21761;SDS011;11203;50.870;20.682;2022-08-19T03:29:44;20.90;;;18.73;;
21761;SDS011;11203;50.870;20.682;2022-08-19T03:32:10;22.50;;;19.83;;
21761;SDS011;11203;50.870;20.682;2022-08-19T03:34:37;21.83;;;19.55;;
21761;SDS011;11203;50.870;20.682;2022-08-19T03:37:05;22.02;;;18.92;;
21761;SDS011;11203;50.870;20.682;2022-08-19T03:39:37;24.23;;;19.77;;
21761;SDS011;11203;50.870;20.682;2022-08-19T03:42:04;21.42;;;19.23;;
21761;SDS011;11203;50.870;20.682;2022-08-19T03:44:31;23.20;;;19.77;;
21761;SDS011;11203;50.870;20.682;2022-08-19T03:47:02;21.65;;;19.45;;
21761;SDS011;11203;50.870;20.682;2022-08-19T03:49:30;23.02;;;19.75;;
21761;SDS011;11203;50.870;20.682;2022-08-19T03:51:58;22.75;;;19.02;;
21761;SDS011;11203;50.870;20.682;2022-08-19T03:54:30;21.35;;;19.25;;
21761;SDS011;11203;50.870;20.682;2022-08-19T03:56:56;22.33;;;20.10;;
21761;SDS011;11203;50.870;20.682;2022-08-19T03:59:24;22.35;;;19.83;;
21761;SDS011;11203;50.870;20.682;2022-08-19T04:01:54;25.85;;;19.95;;
21761;SDS011;11203;50.870;20.682;2022-08-19T04:04:22;24.00;;;19.70;;
21761;SDS011;11203;50.870;20.682;2022-08-19T04:06:50;24.02;;;20.13;;
21761;SDS011;11203;50.870;20.682;2022-08-19T04:09:16;21.63;;;19.48;;
21761;SDS011;11203;50.870;20.682;2022-08-19T04:11:48;22.52;;;20.13;;
21761;SDS011;11203;50.870;20.682;2022-08-19T04:14:20;23.48;;;20.33;;
21761;SDS011;11203;50.870;20.682;2022-08-19T04:16:49;23.08;;;20.65;;
21761;SDS011;11203;50.870;20.682;2022-08-19T04:19:17;24.10;;;20.27;;
21761;SDS011;11203;50.870;20.682;2022-08-19T04:21:46;22.52;;;19.40;;
21761;SDS011;11203;50.870;20.682;2022-08-19T04:24:16;22.00;;;19.80;;
21761;SDS011;11203;50.870;20.682;2022-08-19T04:26:42;22.05;;;19.70;;
21761;SDS011;11203;50.870;20.682;2022-08-19T04:29:11;21.52;;;19.17;;
21761;SDS011;11203;50.870;20.682;2022-08-19T04:31:42;22.25;;;19.48;;
21761;SDS011;11203;50.870;20.682;2022-08-19T04:34:10;22.08;;;19.65;;
21761;SDS011;11203;50.870;20.682;2022-08-19T04:36:40;23.20;;;20.48;;
21761;SDS011;11203;50.870;20.682;2022-08-19T04:39:11;22.05;;;19.73;;
21761;SDS011;11203;50.870;20.682;2022-08-19T04:41:41;26.95;;;19.77;;
21761;SDS011;11203;50.870;20.682;2022-08-19T04:44:25;23.92;;;19.95;;
21761;SDS011;11203;50.870;20.682;2022-08-19T04:46:55;25.35;;;20.15;;
21761;SDS011;11203;50.870;20.682;2022-08-19T04:49:22;24.08;;;20.20;;
21761;SDS011;11203;50.870;20.682;2022-08-19T04:51:50;25.17;;;20.13;;
21761;SDS011;11203;50.870;20.682;2022-08-19T04:54:19;23.20;;;19.70;;
21761;SDS011;11203;50.870;20.682;2022-08-19T04:56:50;22.92;;;19.38;;
21761;SDS011;11203;50.870;20.682;2022-08-19T04:59:18;23.35;;;19.77;;
21761;SDS011;11203;50.870;20.682;2022-08-19T05:01:46;21.70;;;18.88;;
21761;SDS011;11203;50.870;20.682;2022-08-19T05:04:15;21.40;;;18.73;;
21761;SDS011;11203;50.870;20.682;2022-08-19T05:06:44;25.45;;;18.92;;
21761;SDS011;11203;50.870;20.682;2022-08-19T05:09:12;23.02;;;18.10;;
21761;SDS011;11203;50.870;20.682;2022-08-19T05:11:39;21.40;;;18.35;;
21761;SDS011;11203;50.870;20.682;2022-08-19T05:14:06;22.85;;;18.70;;
21761;SDS011;11203;50.870;20.682;2022-08-19T05:16:33;21.77;;;17.75;;
21761;SDS011;11203;50.870;20.682;2022-08-19T05:19:00;27.17;;;18.65;;
21761;SDS011;11203;50.870;20.682;2022-08-19T05:21:45;22.50;;;17.98;;
21761;SDS011;11203;50.870;20.682;2022-08-19T05:24:30;22.70;;;16.88;;
21761;SDS011;11203;50.870;20.682;2022-08-19T05:26:59;20.85;;;17.70;;
21761;SDS011;11203;50.870;20.682;2022-08-19T05:29:28;23.08;;;17.17;;
21761;SDS011;11203;50.870;20.682;2022-08-19T05:31:57;19.67;;;17.05;;
21761;SDS011;11203;50.870;20.682;2022-08-19T05:34:25;20.33;;;17.02;;
21761;SDS011;11203;50.870;20.682;2022-08-19T05:36:56;19.33;;;16.30;;
21761;SDS011;11203;50.870;20.682;2022-08-19T05:39:25;18.60;;;16.75;;
21761;SDS011;11203;50.870;20.682;2022-08-19T05:41:58;19.15;;;16.40;;
21761;SDS011;11203;50.870;20.682;2022-08-19T05:44:31;22.15;;;16.58;;
21761;SDS011;11203;50.870;20.682;2022-08-19T05:47:00;18.60;;;16.17;;
21761;SDS011;11203;50.870;20.682;2022-08-19T05:49:29;21.50;;;16.92;;
21761;SDS011;11203;50.870;20.682;2022-08-19T05:51:57;18.58;;;15.10;;
21761;SDS011;11203;50.870;20.682;2022-08-19T05:54:24;17.42;;;15.60;;
21761;SDS011;11203;50.870;20.682;2022-08-19T05:56:51;21.35;;;15.77;;
21761;SDS011;11203;50.870;20.682;2022-08-19T05:59:19;19.23;;;15.90;;
21761;SDS011;11203;50.870;20.682;2022-08-19T06:01:47;17.40;;;14.93;;
21761;SDS011;11203;50.870;20.682;2022-08-19T06:04:16;18.08;;;16.05;;
21761;SDS011;11203;50.870;20.682;2022-08-19T06:06:45;17.30;;;15.43;;
21761;SDS011;11203;50.870;20.682;2022-08-19T06:09:20;18.20;;;14.18;;
21761;SDS011;11203;50.870;20.682;2022-08-19T06:11:48;19.98;;;14.90;;
21761;SDS011;11203;50.870;20.682;2022-08-19T06:14:21;21.48;;;14.95;;
21761;SDS011;11203;50.870;20.682;2022-08-19T06:16:53;19.25;;;14.63;;
21761;SDS011;11203;50.870;20.682;2022-08-19T06:19:21;22.13;;;15.60;;
21761;SDS011;11203;50.870;20.682;2022-08-19T06:21:49;18.52;;;14.90;;
21761;SDS011;11203;50.870;20.682;2022-08-19T06:24:18;17.60;;;14.30;;
21761;SDS011;11203;50.870;20.682;2022-08-19T06:26:49;19.23;;;14.27;;
21761;SDS011;11203;50.870;20.682;2022-08-19T06:29:18;17.10;;;14.75;;
21761;SDS011;11203;50.870;20.682;2022-08-19T06:31:48;15.75;;;14.18;;
21761;SDS011;11203;50.870;20.682;2022-08-19T06:34:21;18.27;;;14.63;;
21761;SDS011;11203;50.870;20.682;2022-08-19T06:36:49;17.20;;;13.70;;
21761;SDS011;11203;50.870;20.682;2022-08-19T06:39:18;18.52;;;14.07;;
21761;SDS011;11203;50.870;20.682;2022-08-19T06:41:49;18.67;;;14.25;;
21761;SDS011;11203;50.870;20.682;2022-08-19T06:44:18;19.27;;;14.57;;
21761;SDS011;11203;50.870;20.682;2022-08-19T06:46:46;17.80;;;14.57;;
21761;SDS011;11203;50.870;20.682;2022-08-19T06:49:14;19.20;;;13.90;;
21761;SDS011;11203;50.870;20.682;2022-08-19T06:51:41;19.63;;;13.45;;
21761;SDS011;11203;50.870;20.682;2022-08-19T06:54:10;16.77;;;13.57;;
21761;SDS011;11203;50.870;20.682;2022-08-19T06:56:37;15.30;;;13.20;;
21761;SDS011;11203;50.870;20.682;2022-08-19T06:59:07;20.00;;;13.63;;
21761;SDS011;11203;50.870;20.682;2022-08-19T07:01:44;24.30;;;12.80;;
21761;SDS011;11203;50.870;20.682;2022-08-19T07:04:14;21.17;;;14.23;;
21761;SDS011;11203;50.870;20.682;2022-08-19T07:06:43;19.23;;;13.20;;
21761;SDS011;11203;50.870;20.682;2022-08-19T07:09:11;20.50;;;12.80;;
21761;SDS011;11203;50.870;20.682;2022-08-19T07:11:44;16.08;;;12.98;;
21761;SDS011;11203;50.870;20.682;2022-08-19T07:14:13;17.55;;;12.32;;
21761;SDS011;11203;50.870;20.682;2022-08-19T07:16:43;15.32;;;12.65;;
21761;SDS011;11203;50.870;20.682;2022-08-19T07:19:11;17.90;;;12.13;;
21761;SDS011;11203;50.870;20.682;2022-08-19T07:21:37;41.90;;;15.90;;
21761;SDS011;11203;50.870;20.682;2022-08-19T07:24:03;14.93;;;12.13;;
21761;SDS011;11203;50.870;20.682;2022-08-19T07:26:33;18.42;;;12.23;;
21761;SDS011;11203;50.870;20.682;2022-08-19T07:29:06;23.55;;;12.55;;
21761;SDS011;11203;50.870;20.682;2022-08-19T07:31:32;19.98;;;12.07;;
21761;SDS011;11203;50.870;20.682;2022-08-19T07:34:08;21.63;;;12.68;;
21761;SDS011;11203;50.870;20.682;2022-08-19T07:36:38;12.55;;;11.00;;
21761;SDS011;11203;50.870;20.682;2022-08-19T07:39:11;20.98;;;11.60;;
21761;SDS011;11203;50.870;20.682;2022-08-19T07:41:46;15.43;;;10.43;;
21761;SDS011;11203;50.870;20.682;2022-08-19T07:44:13;18.52;;;10.63;;
21761;SDS011;11203;50.870;20.682;2022-08-19T07:46:44;17.00;;;10.93;;
21761;SDS011;11203;50.870;20.682;2022-08-19T07:49:16;11.98;;;10.77;;
21761;SDS011;11203;50.870;20.682;2022-08-19T07:51:48;13.80;;;12.38;;
21761;SDS011;11203;50.870;20.682;2022-08-19T07:54:18;14.32;;;11.10;;
21761;SDS011;11203;50.870;20.682;2022-08-19T07:56:46;15.55;;;10.65;;
21761;SDS011;11203;50.870;20.682;2022-08-19T07:59:12;19.67;;;14.38;;
21761;SDS011;11203;50.870;20.682;2022-08-19T08:01:39;12.23;;;10.10;;
21761;SDS011;11203;50.870;20.682;2022-08-19T08:04:05;13.18;;;10.20;;
21761;SDS011;11203;50.870;20.682;2022-08-19T08:06:51;14.63;;;10.00;;
21761;SDS011;11203;50.870;20.682;2022-08-19T08:09:37;11.57;;;9.93;;
21761;SDS011;11203;50.870;20.682;2022-08-19T08:14:39;13.50;;;9.98;;
21761;SDS011;11203;50.870;20.682;2022-08-19T08:17:18;11.10;;;9.93;;
21761;SDS011;11203;50.870;20.682;2022-08-19T08:19:49;7.10;;;5.50;;
21761;SDS011;11203;50.870;20.682;2022-08-19T08:22:16;8.30;;;4.55;;
21761;SDS011;11203;50.870;20.682;2022-08-19T08:25:04;12.60;;;5.20;;
21761;SDS011;11203;50.870;20.682;2022-08-19T08:27:38;10.48;;;4.93;;
21761;SDS011;11203;50.870;20.682;2022-08-19T08:30:07;11.23;;;6.07;;
21761;SDS011;11203;50.870;20.682;2022-08-19T08:32:36;8.07;;;6.03;;
21761;SDS011;11203;50.870;20.682;2022-08-19T08:35:04;8.88;;;5.20;;
21761;SDS011;11203;50.870;20.682;2022-08-19T08:37:32;7.93;;;5.60;;
21761;SDS011;11203;50.870;20.682;2022-08-19T08:40:01;8.05;;;5.40;;
21761;SDS011;11203;50.870;20.682;2022-08-19T08:42:32;10.93;;;9.27;;
21761;SDS011;11203;50.870;20.682;2022-08-19T08:45:03;10.52;;;9.00;;
21761;SDS011;11203;50.870;20.682;2022-08-19T08:47:40;11.55;;;8.63;;
21761;SDS011;11203;50.870;20.682;2022-08-19T08:50:16;10.45;;;9.07;;
21761;SDS011;11203;50.870;20.682;2022-08-19T08:52:50;13.70;;;8.90;;
21761;SDS011;11203;50.870;20.682;2022-08-19T08:55:22;13.38;;;9.80;;
21761;SDS011;11203;50.870;20.682;2022-08-19T08:57:53;12.15;;;9.20;;
21761;SDS011;11203;50.870;20.682;2022-08-19T09:00:26;10.30;;;9.15;;
21761;SDS011;11203;50.870;20.682;2022-08-19T09:02:57;11.82;;;8.98;;
21761;SDS011;11203;50.870;20.682;2022-08-19T09:05:33;10.80;;;8.88;;
21761;SDS011;11203;50.870;20.682;2022-08-19T09:17:21;13.07;;;11.77;;
21761;SDS011;11203;50.870;20.682;2022-08-19T09:22:34;9.95;;;8.95;;
21761;SDS011;11203;50.870;20.682;2022-08-19T09:25:02;11.38;;;9.15;;
21761;SDS011;11203;50.870;20.682;2022-08-19T09:27:30;10.60;;;9.50;;
21761;SDS011;11203;50.870;20.682;2022-08-19T09:29:57;9.85;;;8.82;;
21761;SDS011;11203;50.870;20.682;2022-08-19T09:32:23;12.30;;;8.75;;
21761;SDS011;11203;50.870;20.682;2022-08-19T09:34:51;12.50;;;8.65;;
21761;SDS011;11203;50.870;20.682;2022-08-19T09:37:20;14.90;;;8.32;;
21761;SDS011;11203;50.870;20.682;2022-08-19T09:39:46;14.77;;;9.02;;
21761;SDS011;11203;50.870;20.682;2022-08-19T09:42:13;9.82;;;8.52;;
21761;SDS011;11203;50.870;20.682;2022-08-19T09:44:40;14.00;;;8.77;;
21761;SDS011;11203;50.870;20.682;2022-08-19T09:47:07;11.38;;;9.40;;
21761;SDS011;11203;50.870;20.682;2022-08-19T09:49:35;25.77;;;9.90;;
21761;SDS011;11203;50.870;20.682;2022-08-19T09:52:01;12.27;;;9.07;;
21761;SDS011;11203;50.870;20.682;2022-08-19T09:54:27;13.23;;;9.45;;
21761;SDS011;11203;50.870;20.682;2022-08-19T09:56:54;11.35;;;9.32;;
21761;SDS011;11203;50.870;20.682;2022-08-19T09:59:21;12.88;;;9.13;;
21761;SDS011;11203;50.870;20.682;2022-08-19T10:01:47;13.02;;;9.32;;
21761;SDS011;11203;50.870;20.682;2022-08-19T10:04:13;12.38;;;8.85;;
21761;SDS011;11203;50.870;20.682;2022-08-19T10:06:39;10.52;;;8.75;;
21761;SDS011;11203;50.870;20.682;2022-08-19T10:09:08;17.85;;;9.30;;
21761;SDS011;11203;50.870;20.682;2022-08-19T10:11:36;12.98;;;9.77;;
21761;SDS011;11203;50.870;20.682;2022-08-19T10:14:06;11.88;;;9.30;;
21761;SDS011;11203;50.870;20.682;2022-08-19T10:16:32;10.80;;;9.18;;
21761;SDS011;11203;50.870;20.682;2022-08-19T10:18:59;10.63;;;9.10;;
21761;SDS011;11203;50.870;20.682;2022-08-19T10:21:27;10.68;;;8.93;;
21761;SDS011;11203;50.870;20.682;2022-08-19T10:23:57;11.20;;;9.30;;
21761;SDS011;11203;50.870;20.682;2022-08-19T10:26:31;15.13;;;12.40;;
21761;SDS011;11203;50.870;20.682;2022-08-19T10:29:03;10.43;;;9.52;;
21761;SDS011;11203;50.870;20.682;2022-08-19T10:31:31;10.23;;;9.13;;
21761;SDS011;11203;50.870;20.682;2022-08-19T10:33:59;10.63;;;9.52;;
21761;SDS011;11203;50.870;20.682;2022-08-19T10:36:31;10.80;;;9.70;;
21761;SDS011;11203;50.870;20.682;2022-08-19T10:39:02;11.57;;;9.82;;
21761;SDS011;11203;50.870;20.682;2022-08-19T10:41:33;12.55;;;10.18;;
21761;SDS011;11203;50.870;20.682;2022-08-19T10:44:03;10.02;;;8.98;;
21761;SDS011;11203;50.870;20.682;2022-08-19T10:46:33;9.98;;;9.07;;
21761;SDS011;11203;50.870;20.682;2022-08-19T10:49:04;34.03;;;27.77;;
21761;SDS011;11203;50.870;20.682;2022-08-19T10:51:31;11.75;;;9.50;;
21761;SDS011;11203;50.870;20.682;2022-08-19T10:54:16;10.38;;;9.35;;
21761;SDS011;11203;50.870;20.682;2022-08-19T10:56:42;10.15;;;9.15;;
21761;SDS011;11203;50.870;20.682;2022-08-19T10:59:19;9.30;;;8.27;;
21761;SDS011;11203;50.870;20.682;2022-08-19T11:01:54;9.60;;;8.60;;
21761;SDS011;11203;50.870;20.682;2022-08-19T11:04:26;11.15;;;8.68;;
21761;SDS011;11203;50.870;20.682;2022-08-19T11:06:52;42.58;;;13.68;;
21761;SDS011;11203;50.870;20.682;2022-08-19T11:09:20;12.55;;;9.57;;
21761;SDS011;11203;50.870;20.682;2022-08-19T11:11:51;22.27;;;10.60;;
21761;SDS011;11203;50.870;20.682;2022-08-19T11:14:19;18.42;;;10.18;;
21761;SDS011;11203;50.870;20.682;2022-08-19T11:16:49;11.38;;;9.75;;
21761;SDS011;11203;50.870;20.682;2022-08-19T11:19:17;10.98;;;9.63;;
21761;SDS011;11203;50.870;20.682;2022-08-19T11:21:45;12.65;;;9.68;;
21761;SDS011;11203;50.870;20.682;2022-08-19T11:24:15;18.95;;;16.88;;
21761;SDS011;11203;50.870;20.682;2022-08-19T11:26:45;11.32;;;9.90;;
21761;SDS011;11203;50.870;20.682;2022-08-19T11:29:18;10.23;;;9.15;;
21761;SDS011;11203;50.870;20.682;2022-08-19T11:31:48;10.88;;;9.85;;
21761;SDS011;11203;50.870;20.682;2022-08-19T11:34:16;13.25;;;9.20;;
21761;SDS011;11203;50.870;20.682;2022-08-19T11:36:47;11.52;;;9.82;;
21761;SDS011;11203;50.870;20.682;2022-08-19T11:39:16;13.68;;;9.20;;
21761;SDS011;11203;50.870;20.682;2022-08-19T11:41:45;10.23;;;9.32;;
21761;SDS011;11203;50.870;20.682;2022-08-19T11:44:11;12.70;;;9.60;;
21761;SDS011;11203;50.870;20.682;2022-08-19T11:46:41;11.15;;;9.85;;
21761;SDS011;11203;50.870;20.682;2022-08-19T11:49:11;13.02;;;10.48;;
21761;SDS011;11203;50.870;20.682;2022-08-19T11:51:39;12.02;;;9.82;;
21761;SDS011;11203;50.870;20.682;2022-08-19T11:54:08;10.20;;;9.20;;
21761;SDS011;11203;50.870;20.682;2022-08-19T11:56:36;12.10;;;9.90;;
21761;SDS011;11203;50.870;20.682;2022-08-19T11:59:02;11.60;;;10.00;;
21761;SDS011;11203;50.870;20.682;2022-08-19T12:01:29;10.75;;;9.63;;
21761;SDS011;11203;50.870;20.682;2022-08-19T12:03:56;12.18;;;9.80;;
21761;SDS011;11203;50.870;20.682;2022-08-19T12:06:25;10.75;;;9.75;;
21761;SDS011;11203;50.870;20.682;2022-08-19T12:08:55;10.05;;;9.18;;
21761;SDS011;11203;50.870;20.682;2022-08-19T12:11:22;11.68;;;9.40;;
21761;SDS011;11203;50.870;20.682;2022-08-19T12:13:49;10.45;;;9.38;;
21761;SDS011;11203;50.870;20.682;2022-08-19T12:16:25;11.20;;;9.07;;
21761;SDS011;11203;50.870;20.682;2022-08-19T12:18:54;13.00;;;9.38;;
21761;SDS011;11203;50.870;20.682;2022-08-19T12:21:26;11.90;;;9.90;;
21761;SDS011;11203;50.870;20.682;2022-08-19T12:23:55;10.30;;;9.15;;
21761;SDS011;11203;50.870;20.682;2022-08-19T12:26:24;12.05;;;9.30;;
21761;SDS011;11203;50.870;20.682;2022-08-19T12:28:52;10.63;;;9.52;;
21761;SDS011;11203;50.870;20.682;2022-08-19T12:31:19;13.48;;;9.38;;
21761;SDS011;11203;50.870;20.682;2022-08-19T12:33:46;10.48;;;9.38;;
21761;SDS011;11203;50.870;20.682;2022-08-19T12:36:13;15.32;;;9.93;;
21761;SDS011;11203;50.870;20.682;2022-08-19T12:38:41;10.63;;;8.48;;
21761;SDS011;11203;50.870;20.682;2022-08-19T12:41:09;10.82;;;9.10;;
21761;SDS011;11203;50.870;20.682;2022-08-19T12:43:38;11.05;;;10.05;;
21761;SDS011;11203;50.870;20.682;2022-08-19T12:46:06;11.60;;;9.50;;
21761;SDS011;11203;50.870;20.682;2022-08-19T12:48:34;12.75;;;9.82;;
21761;SDS011;11203;50.870;20.682;2022-08-19T12:51:01;10.60;;;9.60;;
21761;SDS011;11203;50.870;20.682;2022-08-19T12:53:33;10.95;;;9.77;;
21761;SDS011;11203;50.870;20.682;2022-08-19T12:55:59;17.05;;;15.55;;
21761;SDS011;11203;50.870;20.682;2022-08-19T12:58:26;13.50;;;12.20;;
21761;SDS011;11203;50.870;20.682;2022-08-19T13:00:54;16.63;;;9.60;;
21761;SDS011;11203;50.870;20.682;2022-08-19T13:03:20;13.30;;;9.57;;
21761;SDS011;11203;50.870;20.682;2022-08-19T13:05:50;12.23;;;9.93;;
21761;SDS011;11203;50.870;20.682;2022-08-19T13:08:16;10.88;;;9.80;;
21761;SDS011;11203;50.870;20.682;2022-08-19T13:10:42;9.90;;;9.00;;
21761;SDS011;11203;50.870;20.682;2022-08-19T13:13:09;11.20;;;9.25;;
21761;SDS011;11203;50.870;20.682;2022-08-19T13:15:36;10.45;;;9.20;;
21761;SDS011;11203;50.870;20.682;2022-08-19T13:18:07;13.18;;;9.77;;
21761;SDS011;11203;50.870;20.682;2022-08-19T13:20:35;15.60;;;10.10;;
21761;SDS011;11203;50.870;20.682;2022-08-19T13:23:05;18.10;;;10.02;;
21761;SDS011;11203;50.870;20.682;2022-08-19T13:25:32;11.45;;;10.15;;
21761;SDS011;11203;50.870;20.682;2022-08-19T13:27:59;12.93;;;9.50;;
21761;SDS011;11203;50.870;20.682;2022-08-19T13:30:25;12.10;;;9.73;;
21761;SDS011;11203;50.870;20.682;2022-08-19T13:33:10;12.40;;;9.70;;
21761;SDS011;11203;50.870;20.682;2022-08-19T13:35:37;10.85;;;9.75;;
21761;SDS011;11203;50.870;20.682;2022-08-19T13:38:05;13.80;;;9.77;;
21761;SDS011;11203;50.870;20.682;2022-08-19T13:40:31;15.55;;;10.10;;
21761;SDS011;11203;50.870;20.682;2022-08-19T13:42:59;13.38;;;10.13;;
21761;SDS011;11203;50.870;20.682;2022-08-19T13:45:27;13.50;;;10.30;;
21761;SDS011;11203;50.870;20.682;2022-08-19T13:47:56;11.45;;;9.73;;
21761;SDS011;11203;50.870;20.682;2022-08-19T13:50:23;14.35;;;10.32;;
21761;SDS011;11203;50.870;20.682;2022-08-19T13:52:53;9.93;;;8.98;;
21761;SDS011;11203;50.870;20.682;2022-08-19T13:55:20;15.18;;;9.88;;
21761;SDS011;11203;50.870;20.682;2022-08-19T13:57:58;12.70;;;9.20;;
21761;SDS011;11203;50.870;20.682;2022-08-19T14:00:32;9.68;;;8.68;;
21761;SDS011;11203;50.870;20.682;2022-08-19T14:03:01;11.90;;;9.35;;
21761;SDS011;11203;50.870;20.682;2022-08-19T14:05:29;23.23;;;19.00;;
21761;SDS011;11203;50.870;20.682;2022-08-19T14:07:56;19.40;;;17.35;;
21761;SDS011;11203;50.870;20.682;2022-08-19T14:10:23;13.18;;;11.07;;
21761;SDS011;11203;50.870;20.682;2022-08-19T14:12:59;12.15;;;10.98;;
21761;SDS011;11203;50.870;20.682;2022-08-19T14:15:28;23.13;;;20.75;;
21761;SDS011;11203;50.870;20.682;2022-08-19T14:17:55;16.83;;;12.88;;
21761;SDS011;11203;50.870;20.682;2022-08-19T14:20:21;12.55;;;10.35;;
21761;SDS011;11203;50.870;20.682;2022-08-19T14:22:48;24.27;;;21.48;;
21761;SDS011;11203;50.870;20.682;2022-08-19T14:25:18;15.95;;;14.32;;
21761;SDS011;11203;50.870;20.682;2022-08-19T14:27:48;12.48;;;10.70;;
21761;SDS011;11203;50.870;20.682;2022-08-19T14:30:17;15.63;;;11.75;;
21761;SDS011;11203;50.870;20.682;2022-08-19T14:32:55;12.88;;;10.13;;
21761;SDS011;11203;50.870;20.682;2022-08-19T14:35:23;11.52;;;9.60;;
21761;SDS011;11203;50.870;20.682;2022-08-19T14:37:51;14.80;;;9.75;;
21761;SDS011;11203;50.870;20.682;2022-08-19T14:40:23;16.60;;;12.25;;